LBVD weather

Vidin Smurdan Airfield
Vidin, Vidin Province, Bulgaria

Public forecast

Using degrees Celsius for public forecast. Weather courtesy of forecast.io.

METAR (pilot weather report)

Closest report is Craiova Airport, 49.5 nm (91.6 km) ENE. Retrieved 2019/08/17 23:30 UTC (21 minutes ago):

LRCV 172330Z AUTO 06007KT 9999 NCD 16/11 Q1016

TAF (pilot weather forecast)

Forecast is more than 12 hours old.

Closest forecast is Craiova Airport, 49.5 nm (91.6 km) ENE. Retrieved 2014/07/19 18:48 UTC (5 years ago):

TAF LRCV 191800Z 1918/2024 CNL